TimeEDT,TemperatureF,Dew PointF,Humidity,Sea Level PressureIn,VisibilityMPH,Wind Direction,Wind SpeedMPH,Gust SpeedMPH,PrecipitationIn,Events,Conditions,WindDirDegrees,DateUTC
12:15 AM,51.8,44.6,76,29.64,10.0,South,4.6,-,N/A,,Clear,170,2013-05-16 04:15:00
12:35 AM,53.6,44.6,72,29.65,10.0,South,5.8,-,N/A,,Clear,180,2013-05-16 04:35:00
12:55 AM,57.2,46.4,67,29.66,10.0,SW,4.6,-,N/A,,Clear,220,2013-05-16 04:55:00
1:15 AM,57.2,44.6,63,29.66,10.0,SW,6.9,-,N/A,,Clear,230,2013-05-16 05:15:00
1:35 AM,57.2,44.6,63,29.67,10.0,SW,4.6,-,N/A,,Clear,220,2013-05-16 05:35:00
1:55 AM,55.4,44.6,67,29.67,10.0,WSW,6.9,-,N/A,,Clear,240,2013-05-16 05:55:00
2:15 AM,55.4,42.8,63,29.67,10.0,SW,5.8,-,N/A,,Clear,220,2013-05-16 06:15:00
2:35 AM,55.4,41.0,58,29.67,10.0,SSW,5.8,-,N/A,,Clear,210,2013-05-16 06:35:00
2:55 AM,55.4,41.0,58,29.67,10.0,WSW,4.6,-,N/A,,Clear,250,2013-05-16 06:55:00
3:15 AM,53.6,41.0,62,29.66,10.0,Calm,Calm,-,N/A,,Clear,0,2013-05-16 07:15:00
3:35 AM,48.2,42.8,82,29.66,10.0,Calm,Calm,-,N/A,,Clear,0,2013-05-16 07:35:00
3:55 AM,46.4,41.0,81,29.66,10.0,Calm,Calm,-,N/A,,Clear,0,2013-05-16 07:55:00
4:15 AM,44.6,42.8,93,29.66,10.0,NE,4.6,-,N/A,,Clear,40,2013-05-16 08:15:00
4:35 AM,46.4,41.0,81,29.66,10.0,Calm,Calm,-,N/A,,Clear,0,2013-05-16 08:35:00
4:55 AM,42.8,39.2,87,29.66,10.0,East,3.5,-,N/A,,Clear,80,2013-05-16 08:55:00
5:15 AM,44.6,41.0,87,29.66,10.0,East,4.6,-,N/A,,Clear,100,2013-05-16 09:15:00
5:35 AM,42.8,39.2,87,29.66,10.0,Calm,Calm,-,N/A,,Clear,0,2013-05-16 09:35:00
5:55 AM,44.6,39.2,81,29.67,10.0,Calm,Calm,-,N/A,,Clear,0,2013-05-16 09:55:00
6:15 AM,42.8,39.2,87,29.68,10.0,Calm,Calm,-,N/A,,Clear,0,2013-05-16 10:15:00
6:35 AM,44.6,41.0,87,29.68,10.0,Calm,Calm,-,N/A,,Clear,0,2013-05-16 10:35:00
6:55 AM,48.2,42.8,82,29.69,10.0,SSW,4.6,-,N/A,,Clear,210,2013-05-16 10:55:00
7:15 AM,55.4,39.2,54,29.69,10.0,SW,5.8,-,N/A,,Clear,220,2013-05-16 11:15:00
7:35 AM,57.2,37.4,48,29.69,10.0,SW,6.9,-,N/A,,Clear,220,2013-05-16 11:35:00
7:55 AM,57.2,39.2,51,29.70,10.0,SSW,3.5,-,N/A,,Clear,200,2013-05-16 11:55:00
8:15 AM,57.2,39.2,51,29.70,10.0,SSW,6.9,-,N/A,,Clear,210,2013-05-16 12:15:00
8:35 AM,59.0,39.2,48,29.70,10.0,SW,3.5,-,N/A,,Clear,230,2013-05-16 12:35:00
8:55 AM,60.8,39.2,45,29.70,10.0,WSW,5.8,-,N/A,,Clear,250,2013-05-16 12:55:00
9:15 AM,62.6,37.4,39,29.70,10.0,WSW,15.0,20.7,N/A,,Clear,250,2013-05-16 13:15:00
9:35 AM,62.6,37.4,39,29.69,10.0,West,13.8,20.7,N/A,,Clear,260,2013-05-16 13:35:00
9:55 AM,62.6,37.4,39,29.70,10.0,West,11.5,19.6,N/A,,Clear,260,2013-05-16 13:55:00
10:15 AM,64.4,37.4,37,29.70,10.0,West,10.4,19.6,N/A,,Clear,260,2013-05-16 14:15:00
10:35 AM,64.4,37.4,37,29.70,10.0,WSW,16.1,23.0,N/A,,Clear,250,2013-05-16 14:35:00
10:55 AM,66.2,35.6,32,29.70,10.0,West,12.7,19.6,N/A,,Clear,260,2013-05-16 14:55:00
11:15 AM,66.2,35.6,32,29.70,10.0,West,12.7,21.9,N/A,,Clear,280,2013-05-16 15:15:00
11:35 AM,68.0,35.6,30,29.69,10.0,SW,10.4,19.6,N/A,,Clear,230,2013-05-16 15:35:00
11:55 AM,69.8,35.6,28,29.68,10.0,WSW,13.8,19.6,N/A,,Clear,250,2013-05-16 15:55:00
12:15 PM,69.8,35.6,28,29.66,6.0,WSW,18.4,26.5,N/A,,Partly Cloudy,250,2013-05-16 16:15:00
12:35 PM,71.6,33.8,25,29.66,10.0,WNW,15.0,29.9,N/A,,Partly Cloudy,290,2013-05-16 16:35:00
12:55 PM,73.4,33.8,23,29.66,10.0,WNW,15.0,25.3,N/A,,Partly Cloudy,300,2013-05-16 16:55:00
1:15 PM,71.6,33.8,25,29.66,10.0,WNW,12.7,25.3,N/A,,Scattered Clouds,290,2013-05-16 17:15:00
1:35 PM,73.4,33.8,23,29.66,10.0,West,18.4,26.5,N/A,,Mostly Cloudy,280,2013-05-16 17:35:00
1:55 PM,73.4,33.8,23,29.66,10.0,West,18.4,26.5,N/A,,Scattered Clouds,260,2013-05-16 17:55:00
2:15 PM,73.4,33.8,23,29.65,10.0,West,23.0,32.2,N/A,,Mostly Cloudy,270,2013-05-16 18:15:00
2:35 PM,71.6,33.8,25,29.65,10.0,West,19.6,31.1,N/A,,Mostly Cloudy,260,2013-05-16 18:35:00
3:15 PM,73.4,32.0,22,29.66,10.0,WNW,20.7,31.1,N/A,,Mostly Cloudy,290,2013-05-16 19:15:00
3:35 PM,73.4,32.0,22,29.65,10.0,West,19.6,29.9,N/A,,Mostly Cloudy,280,2013-05-16 19:35:00
3:55 PM,71.6,32.0,23,29.65,10.0,West,12.7,27.6,N/A,,Mostly Cloudy,280,2013-05-16 19:55:00
4:15 PM,73.4,32.0,22,29.65,10.0,West,16.1,26.5,N/A,,Mostly Cloudy,270,2013-05-16 20:15:00
4:35 PM,71.6,30.2,22,29.66,10.0,West,11.5,29.9,N/A,,Mostly Cloudy,270,2013-05-16 20:35:00
4:55 PM,71.6,30.2,22,29.66,10.0,West,16.1,20.7,N/A,,Overcast,270,2013-05-16 20:55:00
5:15 PM,71.6,30.2,22,29.66,10.0,West,10.4,19.6,N/A,,Overcast,270,2013-05-16 21:15:00
5:35 PM,71.6,32.0,23,29.66,10.0,West,18.4,26.5,N/A,,Overcast,260,2013-05-16 21:35:00
6:15 PM,71.6,32.0,23,29.67,10.0,WNW,15.0,23.0,N/A,,Overcast,290,2013-05-16 22:15:00
6:35 PM,71.6,30.2,22,29.68,10.0,WNW,10.4,24.2,N/A,,Overcast,300,2013-05-16 22:35:00
6:55 PM,66.2,37.4,35,29.70,10.0,North,15.0,23.0,N/A,,Overcast,350,2013-05-16 22:55:00
7:15 PM,62.6,37.4,39,29.72,10.0,NNW,12.7,21.9,N/A,,Partly Cloudy,340,2013-05-16 23:15:00
7:35 PM,60.8,39.2,45,29.74,10.0,NW,10.4,-,N/A,,Partly Cloudy,320,2013-05-16 23:35:00
7:55 PM,59.0,39.2,48,29.76,10.0,NW,8.1,-,N/A,,Clear,320,2013-05-16 23:55:00
8:15 PM,57.2,39.2,51,29.77,10.0,NW,6.9,-,N/A,,Clear,310,2013-05-17 00:15:00
8:35 PM,57.2,39.2,51,29.79,10.0,NW,8.1,-,N/A,,Clear,310,2013-05-17 00:35:00
8:55 PM,55.4,39.2,54,29.80,10.0,WNW,9.2,-,N/A,,Clear,300,2013-05-17 00:55:00
9:15 PM,55.4,39.2,54,29.82,10.0,WNW,9.2,-,N/A,,Clear,300,2013-05-17 01:15:00
9:35 PM,53.6,39.2,58,29.83,10.0,WNW,8.1,-,N/A,,Clear,300,2013-05-17 01:35:00
9:55 PM,53.6,39.2,58,29.84,10.0,WNW,5.8,-,N/A,,Clear,300,2013-05-17 01:55:00
10:15 PM,53.6,39.2,58,29.85,10.0,NW,4.6,-,N/A,,Clear,320,2013-05-17 02:15:00
10:35 PM,51.8,39.2,62,29.85,10.0,Calm,Calm,-,N/A,,Clear,0,2013-05-17 02:35:00
10:55 PM,50.0,39.2,66,29.85,10.0,Calm,Calm,-,N/A,,Clear,0,2013-05-17 02:55:00
11:15 PM,48.2,39.2,71,29.86,10.0,Calm,Calm,-,N/A,,Clear,0,2013-05-17 03:15:00
11:35 PM,46.4,39.2,76,29.86,10.0,SE,3.5,-,N/A,,Clear,140,2013-05-17 03:35:00
11:55 PM,46.4,39.2,76,29.87,10.0,Calm,Calm,-,N/A,,Clear,0,2013-05-17 03:55:00